LFMV/AVN METAR and TAF weather

Enter ICAO airport designator
Station Type Date Time Source
LFMV METAR 2022/05/26 05:00 UTC NOAA

LFMV 260500Z AUTO 35017G27KT CAVOK 18/07 Q1018 NOSIG


Station Type Date Time Source
LFMV Decoded METAR 2022/05/26 05:00 UTC NOAA

Station name not available
May 26, 2022 - 01:00 AM EDT / 2022.05.26 0500 UTC
Wind: from the N (350 degrees) at 20 MPH (17 KT) gusting to 31 MPH (27 KT):0
Visibility: greater than 7 mile(s):0
Temperature: 64 F (18 C)
Dew Point: 44 F (7 C)
Relative Humidity: 48%
Pressure (altimeter): 30.06 in. Hg (1018 hPa)
ob: LFMV 260500Z AUTO 35017G27KT CAVOK 18/07 Q1018 NOSIG
cycle: 5

Station Type Date Time Source
LFMV TAF 2022/05/25 20:00 UTC NOAA

TAF
AMD LFMV 252000Z 2520/2615 CNL

Example: see airport list